createdAt,value
2018-03-15T00:00:40.399Z,0.00
2018-03-15T00:01:39.360Z,0.00
2018-03-15T00:03:31.698Z,0.00
2018-03-15T00:04:31.693Z,0.00
2018-03-15T00:06:25.895Z,0.00
2018-03-15T00:07:25.030Z,0.00
2018-03-15T00:09:21.594Z,0.00
2018-03-15T00:10:20.883Z,0.00
2018-03-15T00:12:16.811Z,0.00
2018-03-15T00:13:14.244Z,0.00
2018-03-15T00:15:07.730Z,0.00
2018-03-15T00:16:07.102Z,0.00
2018-03-15T00:18:00.516Z,0.00
2018-03-15T00:18:59.943Z,0.00
2018-03-15T00:20:53.041Z,0.00
2018-03-15T00:21:52.804Z,0.00
2018-03-15T00:23:45.715Z,0.00
2018-03-15T00:24:45.652Z,0.00
2018-03-15T00:26:40.651Z,0.00
2018-03-15T00:27:40.007Z,0.00
2018-03-15T00:29:33.489Z,0.00
2018-03-15T00:30:33.396Z,0.00
2018-03-15T00:32:26.743Z,0.00
2018-03-15T00:33:27.285Z,0.00
2018-03-15T00:35:19.592Z,0.00
2018-03-15T00:36:19.593Z,0.00
2018-03-15T00:38:13.068Z,0.00
2018-03-15T00:39:12.444Z,0.00
2018-03-15T00:41:05.914Z,0.00
2018-03-15T00:42:05.566Z,0.00
2018-03-15T00:44:01.842Z,0.00
2018-03-15T00:44:58.424Z,0.00
2018-03-15T00:46:51.653Z,0.00
2018-03-15T00:47:51.274Z,0.00
2018-03-15T00:49:45.002Z,0.00
2018-03-15T00:50:44.618Z,0.00
2018-03-15T00:52:37.985Z,0.00
2018-03-15T00:53:37.963Z,0.00
2018-03-15T00:55:31.983Z,0.00
2018-03-15T00:56:31.536Z,0.00
2018-03-15T00:58:24.479Z,0.00
2018-03-15T00:59:24.175Z,0.00
2018-03-15T01:01:17.609Z,0.00
2018-03-15T01:02:17.513Z,0.00
2018-03-15T01:04:11.713Z,0.00
2018-03-15T01:05:11.443Z,0.00
2018-03-15T01:07:04.429Z,0.00
2018-03-15T01:08:04.218Z,0.00
2018-03-15T01:09:58.136Z,0.00
2018-03-15T01:10:57.074Z,0.00
2018-03-15T01:12:55.180Z,0.00
2018-03-15T01:13:50.415Z,0.00
2018-03-15T01:15:44.469Z,0.00
2018-03-15T01:16:43.846Z,0.00
2018-03-15T01:18:37.208Z,0.00
2018-03-15T01:19:37.138Z,0.00
2018-03-15T01:21:30.560Z,0.00
2018-03-15T01:22:30.500Z,0.00
2018-03-15T01:24:24.080Z,0.00
2018-03-15T01:25:24.429Z,0.00
2018-03-15T01:27:17.681Z,0.00
2018-03-15T01:28:17.184Z,0.00
2018-03-15T01:30:10.864Z,0.00
2018-03-15T01:31:10.544Z,0.00
2018-03-15T01:33:04.211Z,0.00
2018-03-15T01:34:03.919Z,0.00
2018-03-15T01:36:04.564Z,0.00
2018-03-15T01:36:57.223Z,0.00
2018-03-15T01:38:53.287Z,0.00
2018-03-15T01:41:06.611Z,0.00
2018-03-15T01:42:06.498Z,0.00
2018-03-15T01:44:00.006Z,0.00
2018-03-15T01:44:59.825Z,0.00
2018-03-15T01:46:52.702Z,0.00
2018-03-15T01:47:53.165Z,0.00
2018-03-15T01:49:52.595Z,0.00
2018-03-15T01:50:45.538Z,0.00
2018-03-15T01:52:40.082Z,0.00
2018-03-15T01:53:38.885Z,0.00
2018-03-15T01:55:31.795Z,0.00
2018-03-15T01:56:32.321Z,0.00
2018-03-15T01:58:25.220Z,0.00
2018-03-15T01:59:25.112Z,0.00
2018-03-15T02:01:19.824Z,0.00
2018-03-15T02:02:18.454Z,0.00
2018-03-15T02:04:12.191Z,0.00
2018-03-15T02:05:11.876Z,0.00
2018-03-15T02:07:05.472Z,0.00
2018-03-15T02:08:05.159Z,0.00
2018-03-15T02:09:58.559Z,0.00
2018-03-15T02:10:58.522Z,0.00
2018-03-15T02:12:55.636Z,0.00
2018-03-15T02:13:53.454Z,0.00
2018-03-15T02:15:46.475Z,0.00
2018-03-15T02:16:46.240Z,0.00
2018-03-15T02:18:39.884Z,0.00
2018-03-15T02:19:39.600Z,0.00
2018-03-15T02:21:33.097Z,0.00
2018-03-15T02:22:32.928Z,0.00
2018-03-15T02:24:26.976Z,0.00
2018-03-15T02:25:26.887Z,0.00
2018-03-15T02:27:22.237Z,0.00
2018-03-15T02:28:19.517Z,0.00
2018-03-15T02:30:14.693Z,0.00
2018-03-15T02:31:13.058Z,0.00
2018-03-15T02:33:06.933Z,0.00
2018-03-15T02:34:06.477Z,0.00
2018-03-15T02:35:59.868Z,0.00
2018-03-15T02:36:59.794Z,0.00
2018-03-15T02:38:53.440Z,0.00
2018-03-15T02:39:53.101Z,0.00
2018-03-15T02:41:46.240Z,0.00
2018-03-15T02:42:45.975Z,0.00
2018-03-15T02:44:39.595Z,0.00
2018-03-15T02:45:41.881Z,0.00
2018-03-15T02:47:34.753Z,0.00
2018-03-15T02:48:32.743Z,0.00
2018-03-15T02:50:26.782Z,0.00
2018-03-15T02:51:27.135Z,0.00
2018-03-15T02:53:20.139Z,0.00
2018-03-15T02:54:19.854Z,0.00
2018-03-15T02:56:14.479Z,0.00
2018-03-15T02:57:14.289Z,0.00
2018-03-15T02:59:10.142Z,0.00
2018-03-15T03:00:10.361Z,0.00
2018-03-15T03:02:03.571Z,0.00
2018-03-15T03:03:03.444Z,0.00
2018-03-15T03:04:57.153Z,0.00
2018-03-15T03:05:56.846Z,0.00
2018-03-15T03:07:51.259Z,0.00
2018-03-15T03:08:52.973Z,0.00
2018-03-15T03:10:43.765Z,0.00
2018-03-15T03:11:43.508Z,0.00
2018-03-15T03:13:37.217Z,0.00
2018-03-15T03:14:36.896Z,0.00
2018-03-15T03:16:30.804Z,0.00
2018-03-15T03:18:43.634Z,0.00
2018-03-15T03:19:43.341Z,0.00
2018-03-15T03:21:36.708Z,0.00
2018-03-15T03:22:36.497Z,0.00
2018-03-15T03:24:29.365Z,0.00
2018-03-15T03:25:29.920Z,0.00
2018-03-15T03:27:22.795Z,0.00
2018-03-15T03:28:22.191Z,0.00
2018-03-15T03:30:16.955Z,0.00
2018-03-15T03:32:30.964Z,0.00
2018-03-15T03:33:30.936Z,0.00
2018-03-15T03:35:24.615Z,0.00
2018-03-15T03:36:24.837Z,0.00
2018-03-15T03:38:17.662Z,0.00
2018-03-15T03:39:17.633Z,0.00
2018-03-15T03:41:22.809Z,0.00
2018-03-15T03:42:11.989Z,0.00
2018-03-15T03:44:06.632Z,0.00
2018-03-15T03:45:06.356Z,0.00
2018-03-15T03:47:03.236Z,0.00
2018-03-15T03:48:02.216Z,0.00
2018-03-15T03:49:55.660Z,0.00
2018-03-15T03:50:55.096Z,0.00
2018-03-15T03:52:50.035Z,0.00
2018-03-15T03:53:49.449Z,0.00
2018-03-15T03:55:43.121Z,0.00
2018-03-15T03:56:42.795Z,0.00
2018-03-15T03:58:36.373Z,0.00
2018-03-15T03:59:36.183Z,0.00
2018-03-15T04:01:29.555Z,0.00
2018-03-15T04:02:29.494Z,0.00
2018-03-15T04:04:23.692Z,0.00
2018-03-15T04:05:23.416Z,0.00
2018-03-15T04:07:17.083Z,0.00
2018-03-15T04:08:16.202Z,0.00
2018-03-15T04:10:15.000Z,0.00
2018-03-15T04:11:09.524Z,0.00
2018-03-15T04:13:02.946Z,0.00
2018-03-15T04:14:02.881Z,0.00
2018-03-15T04:15:56.443Z,0.00
2018-03-15T04:16:56.249Z,0.00
2018-03-15T04:18:50.779Z,0.00
2018-03-15T04:19:50.573Z,0.00
2018-03-15T04:21:44.144Z,0.00
2018-03-15T04:22:43.929Z,0.00
2018-03-15T04:24:37.413Z,0.00
2018-03-15T04:25:36.808Z,0.00
2018-03-15T04:27:31.243Z,0.00
2018-03-15T04:28:29.837Z,0.00
2018-03-15T04:30:22.808Z,0.00
2018-03-15T04:31:22.525Z,0.00
2018-03-15T04:33:16.104Z,0.00
2018-03-15T04:34:15.864Z,0.00
2018-03-15T04:36:09.303Z,0.00
2018-03-15T04:37:09.210Z,0.00
2018-03-15T04:39:02.240Z,0.00
2018-03-15T04:40:02.069Z,0.00
2018-03-15T04:41:55.459Z,0.00
2018-03-15T04:42:55.434Z,0.00
2018-03-15T04:44:48.523Z,0.00
2018-03-15T04:45:48.296Z,0.00
2018-03-15T04:47:41.259Z,0.00
2018-03-15T04:48:41.184Z,0.00
2018-03-15T04:50:34.564Z,0.00
2018-03-15T04:51:34.508Z,0.00
2018-03-15T04:53:28.073Z,0.00
2018-03-15T04:54:27.932Z,0.00
2018-03-15T04:56:21.803Z,0.00
2018-03-15T04:57:21.217Z,0.00
2018-03-15T04:59:14.893Z,0.00
2018-03-15T05:00:14.630Z,0.00
2018-03-15T05:02:12.458Z,0.00
2018-03-15T05:04:23.958Z,0.00
2018-03-15T05:05:23.806Z,0.00
2018-03-15T05:07:19.372Z,0.00
2018-03-15T05:08:16.680Z,0.00
2018-03-15T05:10:10.463Z,0.00
2018-03-15T05:11:12.591Z,0.00
2018-03-15T05:13:03.778Z,0.00
2018-03-15T05:14:03.391Z,0.00
2018-03-15T05:15:56.781Z,0.00
2018-03-15T05:16:56.753Z,4.00
2018-03-15T05:18:50.534Z,0.00
2018-03-15T05:19:50.086Z,4.00
2018-03-15T05:22:12.808Z,4.00
2018-03-15T05:23:04.722Z,4.00
2018-03-15T05:24:59.077Z,4.00
2018-03-15T05:25:58.114Z,8.00
2018-03-15T05:27:53.507Z,8.00
2018-03-15T05:28:50.919Z,12.00
2018-03-15T05:32:17.371Z,16.00
2018-03-15T05:33:17.328Z,24.00
2018-03-15T05:35:11.542Z,36.00
2018-03-15T05:36:11.333Z,36.00
2018-03-15T05:38:04.426Z,52.00
2018-03-15T05:39:04.024Z,56.00
2018-03-15T05:40:57.749Z,72.00
2018-03-15T05:41:57.403Z,80.00
2018-03-15T05:43:57.339Z,96.00
2018-03-15T05:44:53.547Z,108.00
2018-03-15T05:46:46.674Z,124.00
2018-03-15T05:47:46.669Z,132.00
2018-03-15T05:49:42.567Z,152.00
2018-03-15T05:50:42.513Z,160.00
2018-03-15T05:52:35.912Z,180.00
2018-03-15T05:53:35.908Z,192.00
2018-03-15T05:55:31.475Z,220.00
2018-03-15T05:56:29.255Z,240.00
2018-03-15T05:58:23.585Z,280.00
2018-03-15T05:59:22.601Z,304.00
2018-03-15T06:01:17.425Z,356.00
2018-03-15T06:02:16.863Z,388.00
2018-03-15T06:04:11.943Z,456.00
2018-03-15T06:05:10.423Z,492.00
2018-03-15T06:07:03.690Z,584.00
2018-03-15T06:08:02.552Z,640.00
2018-03-15T06:09:56.879Z,732.00
2018-03-15T06:10:55.941Z,764.00
2018-03-15T06:12:49.910Z,808.00
2018-03-15T06:13:49.368Z,828.00
2018-03-15T06:15:44.773Z,832.00
2018-03-15T06:16:43.229Z,832.00
2018-03-15T06:18:37.141Z,860.00
2018-03-15T06:19:36.124Z,884.00
2018-03-15T06:21:29.471Z,916.00
2018-03-15T06:22:29.271Z,924.00
2018-03-15T06:24:22.913Z,932.00
2018-03-15T06:25:22.472Z,936.00
2018-03-15T06:27:16.251Z,924.00
2018-03-15T06:28:15.840Z,928.00
2018-03-15T06:30:09.775Z,932.00
2018-03-15T06:31:09.068Z,924.00
2018-03-15T06:33:02.600Z,928.00
2018-03-15T06:34:01.993Z,936.00
2018-03-15T06:35:59.467Z,936.00
2018-03-15T06:36:57.335Z,940.00
2018-03-15T06:38:49.703Z,936.00
2018-03-15T06:39:49.638Z,896.00
2018-03-15T06:41:43.841Z,820.00
2018-03-15T06:42:43.055Z,780.00
2018-03-15T06:44:36.428Z,728.00
2018-03-15T06:45:36.395Z,716.00
2018-03-15T06:47:29.638Z,688.00
2018-03-15T06:48:29.395Z,680.00
2018-03-15T06:50:23.003Z,680.00
2018-03-15T06:51:22.748Z,684.00
2018-03-15T06:53:15.907Z,696.00
2018-03-15T06:54:15.567Z,712.00
2018-03-15T06:56:11.268Z,752.00
2018-03-15T06:57:08.443Z,784.00
2018-03-15T06:59:01.455Z,888.00
2018-03-15T07:00:01.312Z,976.00
2018-03-15T07:01:55.052Z,1240.00
2018-03-15T07:02:54.670Z,1388.00
2018-03-15T07:04:47.791Z,1420.00
2018-03-15T07:05:47.556Z,1668.00
2018-03-15T07:07:41.248Z,1776.00
2018-03-15T07:08:40.859Z,1908.00
2018-03-15T07:10:34.611Z,2016.00
2018-03-15T07:11:34.798Z,2032.00
2018-03-15T07:13:27.755Z,1992.00
2018-03-15T07:14:27.416Z,1940.00
2018-03-15T07:16:20.661Z,1972.00
2018-03-15T07:17:20.408Z,1964.00
2018-03-15T07:19:14.113Z,1916.00
2018-03-15T07:20:13.788Z,1916.00
2018-03-15T07:22:14.748Z,2004.00
2018-03-15T07:23:14.562Z,2020.00
2018-03-15T07:25:07.803Z,1892.00
2018-03-15T07:26:07.514Z,1836.00
2018-03-15T07:28:00.453Z,2140.00
2018-03-15T07:29:00.377Z,2080.00
2018-03-15T07:30:54.141Z,2200.00
2018-03-15T07:31:53.776Z,2116.00
2018-03-15T07:33:47.781Z,1748.00
2018-03-15T07:34:47.091Z,1752.00
2018-03-15T07:36:40.859Z,1936.00
2018-03-15T07:37:40.517Z,2000.00
2018-03-15T07:39:33.858Z,2116.00
2018-03-15T07:40:34.363Z,2220.00
2018-03-15T07:42:27.448Z,2412.00
2018-03-15T07:43:27.719Z,2512.00
2018-03-15T07:45:20.813Z,2628.00
2018-03-15T07:46:20.553Z,2668.00
2018-03-15T07:48:14.430Z,2568.00
2018-03-15T07:49:13.897Z,2644.00
2018-03-15T07:51:07.522Z,2628.00
2018-03-15T07:52:07.274Z,2624.00
2018-03-15T07:54:00.197Z,2572.00
2018-03-15T07:55:00.100Z,2560.00
2018-03-15T07:56:53.796Z,2656.00
2018-03-15T07:57:53.466Z,2700.00
2018-03-15T07:59:46.908Z,2716.00
2018-03-15T08:00:46.848Z,2692.00
2018-03-15T08:02:40.124Z,2684.00
2018-03-15T08:03:39.735Z,2704.00
2018-03-15T08:05:33.162Z,2840.00
2018-03-15T08:06:33.067Z,2888.00
2018-03-15T08:08:26.699Z,3028.00
2018-03-15T08:09:26.414Z,3100.00
2018-03-15T08:11:19.938Z,3228.00
2018-03-15T08:12:20.143Z,3260.00
2018-03-15T08:14:13.228Z,3264.00
2018-03-15T08:15:13.717Z,3232.00
2018-03-15T08:17:07.775Z,3128.00
2018-03-15T08:18:07.527Z,3124.00
2018-03-15T08:20:03.965Z,3196.00
2018-03-15T08:21:03.440Z,3208.00
2018-03-15T08:22:56.654Z,3168.00
2018-03-15T08:23:56.313Z,3124.00
2018-03-15T08:25:50.941Z,3084.00
2018-03-15T08:26:53.221Z,3044.00
2018-03-15T08:28:45.868Z,2856.00
2018-03-15T08:29:44.039Z,2820.00
2018-03-15T08:31:37.705Z,2808.00
2018-03-15T08:32:37.333Z,2792.00
2018-03-15T08:34:30.748Z,2732.00
2018-03-15T08:35:30.712Z,2708.00
2018-03-15T08:37:23.872Z,2716.00
2018-03-15T08:38:23.561Z,2724.00
2018-03-15T08:40:17.889Z,2748.00
2018-03-15T08:41:16.919Z,2788.00
2018-03-15T08:43:10.614Z,2876.00
2018-03-15T08:44:10.321Z,2912.00
2018-03-15T08:46:03.972Z,3004.00
2018-03-15T08:47:04.235Z,3056.00
2018-03-15T08:48:58.031Z,3136.00
2018-03-15T08:49:58.016Z,3156.00
2018-03-15T08:51:51.468Z,3188.00
2018-03-15T08:52:51.382Z,3244.00
2018-03-15T08:54:47.309Z,3392.00
2018-03-15T08:55:47.272Z,3432.00
2018-03-15T08:57:40.491Z,3568.00
2018-03-15T08:58:41.959Z,3656.00
2018-03-15T09:00:33.615Z,3688.00
2018-03-15T09:01:33.515Z,3664.00
2018-03-15T09:03:27.233Z,3636.00
2018-03-15T09:04:26.905Z,3612.00
2018-03-15T09:06:20.262Z,3560.00
2018-03-15T09:07:20.227Z,3556.00
2018-03-15T09:09:13.127Z,3468.00
2018-03-15T09:10:13.305Z,3400.00
2018-03-15T09:12:06.464Z,3248.00
2018-03-15T09:13:06.425Z,3168.00
2018-03-15T09:15:00.092Z,3024.00
2018-03-15T09:15:59.802Z,2944.00
2018-03-15T09:17:53.328Z,2856.00
2018-03-15T09:18:53.733Z,2820.00
2018-03-15T09:20:46.987Z,2876.00
2018-03-15T09:21:46.555Z,2852.00
2018-03-15T09:23:41.307Z,2868.00
2018-03-15T09:24:39.392Z,2868.00
2018-03-15T09:26:32.627Z,2920.00
2018-03-15T09:27:32.284Z,2948.00
2018-03-15T09:29:25.640Z,3108.00
2018-03-15T09:30:25.705Z,3264.00
2018-03-15T09:32:18.679Z,3412.00
2018-03-15T09:33:18.500Z,3468.00
2018-03-15T09:35:11.396Z,3440.00
2018-03-15T09:36:11.393Z,3448.00
2018-03-15T09:38:04.983Z,3408.00
2018-03-15T09:39:04.699Z,3404.00
2018-03-15T09:40:58.243Z,3348.00
2018-03-15T09:41:58.068Z,3316.00
2018-03-15T09:43:51.218Z,3224.00
2018-03-15T09:44:50.938Z,3196.00
2018-03-15T09:46:44.128Z,3216.00
2018-03-15T09:47:44.375Z,3256.00
2018-03-15T09:49:37.204Z,3448.00
2018-03-15T09:50:37.486Z,3548.00
2018-03-15T09:52:30.598Z,3824.00
2018-03-15T09:53:31.081Z,3948.00
2018-03-15T09:55:24.076Z,4160.00
2018-03-15T09:56:23.884Z,4280.00
2018-03-15T09:58:17.505Z,4404.00
2018-03-15T09:59:17.270Z,4340.00
2018-03-15T10:01:11.685Z,4176.00
2018-03-15T10:02:11.631Z,4084.00
2018-03-15T10:04:05.301Z,3904.00
2018-03-15T10:05:05.023Z,3772.00
2018-03-15T10:06:58.629Z,3664.00
2018-03-15T10:07:58.656Z,3692.00
2018-03-15T10:09:52.103Z,3860.00
2018-03-15T10:10:51.731Z,3912.00
2018-03-15T10:12:47.904Z,3940.00
2018-03-15T10:13:48.194Z,3936.00
2018-03-15T10:15:41.273Z,4008.00
2018-03-15T10:16:40.562Z,4160.00
2018-03-15T10:18:36.697Z,4400.00
2018-03-15T10:19:37.019Z,4472.00
2018-03-15T10:21:30.039Z,4568.00
2018-03-15T10:22:29.765Z,4564.00
2018-03-15T10:24:23.547Z,4588.00
2018-03-15T10:25:26.395Z,4588.00
2018-03-15T10:27:16.214Z,4528.00
2018-03-15T10:28:16.029Z,4492.00
2018-03-15T10:30:09.370Z,4476.00
2018-03-15T10:31:09.348Z,4480.00
2018-03-15T10:33:02.863Z,4480.00
2018-03-15T10:34:02.737Z,4456.00
2018-03-15T10:35:56.181Z,4368.00
2018-03-15T10:36:56.092Z,4340.00
2018-03-15T10:38:51.140Z,4380.00
2018-03-15T10:39:50.478Z,4340.00
2018-03-15T10:41:45.434Z,4376.00
2018-03-15T10:42:44.832Z,4368.00
2018-03-15T10:44:38.319Z,4344.00
2018-03-15T10:45:38.203Z,4276.00
2018-03-15T10:47:31.948Z,4248.00
2018-03-15T10:48:31.604Z,4192.00
2018-03-15T10:50:25.955Z,4168.00
2018-03-15T10:52:39.862Z,4260.00
2018-03-15T10:53:38.887Z,4332.00
2018-03-15T10:55:33.750Z,4432.00
2018-03-15T10:56:33.188Z,4496.00
2018-03-15T10:58:29.938Z,4624.00
2018-03-15T10:59:29.057Z,4700.00
2018-03-15T11:01:22.674Z,4912.00
2018-03-15T11:02:22.474Z,5016.00
2018-03-15T11:04:15.377Z,5292.00
2018-03-15T11:05:15.603Z,5352.00
2018-03-15T11:07:08.498Z,5556.00
2018-03-15T11:08:08.782Z,5676.00
2018-03-15T11:10:01.902Z,5784.00
2018-03-15T11:11:01.573Z,5856.00
2018-03-15T11:12:55.260Z,5864.00
2018-03-15T11:13:54.941Z,5904.00
2018-03-15T11:15:47.854Z,6032.00
2018-03-15T11:16:47.797Z,6120.00
2018-03-15T11:18:41.625Z,6140.00
2018-03-15T11:19:40.671Z,6036.00
2018-03-15T11:21:34.088Z,5740.00
2018-03-15T11:22:34.029Z,5704.00
2018-03-15T11:24:29.068Z,5432.00
2018-03-15T11:25:28.612Z,5312.00
2018-03-15T11:27:21.310Z,5260.00
2018-03-15T11:28:21.288Z,5316.00
2018-03-15T11:30:14.933Z,5444.00
2018-03-15T11:31:14.640Z,5536.00
2018-03-15T11:33:10.629Z,5420.00
2018-03-15T11:34:08.007Z,5300.00
2018-03-15T11:36:01.784Z,5124.00
2018-03-15T11:37:01.393Z,5016.00
2018-03-15T11:38:54.536Z,5024.00
2018-03-15T11:39:54.374Z,5016.00
2018-03-15T11:41:47.653Z,4856.00
2018-03-15T11:42:48.450Z,4944.00
2018-03-15T11:44:42.584Z,5496.00
2018-03-15T11:45:41.973Z,5744.00
2018-03-15T11:47:37.412Z,6016.00
2018-03-15T11:48:36.920Z,6044.00
2018-03-15T11:50:29.279Z,6060.00
2018-03-15T11:51:29.230Z,6028.00
2018-03-15T11:53:22.334Z,5744.00
2018-03-15T11:54:22.097Z,5484.00
2018-03-15T11:56:15.765Z,5048.00
2018-03-15T11:57:15.503Z,4960.00
2018-03-15T11:59:09.221Z,4964.00
2018-03-15T12:00:08.827Z,5004.00
2018-03-15T12:02:02.267Z,5036.00
2018-03-15T12:03:02.197Z,5020.00
2018-03-15T12:04:57.173Z,4884.00
2018-03-15T12:05:55.601Z,4888.00
2018-03-15T12:07:48.766Z,5160.00
2018-03-15T12:08:48.453Z,5288.00
2018-03-15T12:10:42.086Z,5420.00
2018-03-15T12:11:41.797Z,5472.00
2018-03-15T12:13:35.754Z,5540.00
2018-03-15T12:14:35.160Z,5568.00
2018-03-15T12:16:29.413Z,5636.00
2018-03-15T12:17:29.120Z,5684.00
2018-03-15T12:19:22.156Z,5764.00
2018-03-15T12:20:22.501Z,5740.00
2018-03-15T12:22:15.000Z,5596.00
2018-03-15T12:23:14.805Z,5564.00
2018-03-15T12:25:09.469Z,5588.00
2018-03-15T12:26:09.186Z,5576.00
2018-03-15T12:28:02.788Z,5476.00
2018-03-15T12:29:02.516Z,5432.00
2018-03-15T12:30:55.621Z,5392.00
2018-03-15T12:31:55.384Z,5392.00
2018-03-15T12:33:49.030Z,5344.00
2018-03-15T12:34:48.798Z,5268.00
2018-03-15T12:36:42.433Z,5140.00
2018-03-15T12:37:42.145Z,5108.00
2018-03-15T12:39:35.304Z,4984.00
2018-03-15T12:40:35.554Z,4868.00
2018-03-15T12:42:27.956Z,4716.00
2018-03-15T12:43:28.446Z,4696.00
2018-03-15T12:45:21.319Z,4576.00
2018-03-15T12:46:21.491Z,4512.00
2018-03-15T12:48:14.151Z,4456.00
2018-03-15T12:49:14.388Z,4408.00
2018-03-15T12:51:08.761Z,4264.00
2018-03-15T12:52:09.058Z,4200.00
2018-03-15T12:54:01.657Z,4056.00
2018-03-15T12:55:01.388Z,3936.00
2018-03-15T12:56:54.797Z,3684.00
2018-03-15T12:57:54.197Z,3564.00
2018-03-15T12:59:47.354Z,3320.00
2018-03-15T13:00:47.115Z,3196.00
2018-03-15T13:02:43.013Z,3056.00
2018-03-15T13:03:40.444Z,3056.00
2018-03-15T13:05:33.573Z,3160.00
2018-03-15T13:06:33.335Z,3268.00
2018-03-15T13:08:26.552Z,3596.00
2018-03-15T13:09:26.217Z,3764.00
2018-03-15T13:11:19.310Z,3968.00
2018-03-15T13:12:19.050Z,4068.00
2018-03-15T13:14:15.127Z,4196.00
2018-03-15T13:15:13.434Z,4244.00
2018-03-15T13:17:06.955Z,4320.00
2018-03-15T13:18:06.841Z,4352.00
2018-03-15T13:19:59.923Z,4328.00
2018-03-15T13:20:59.653Z,4352.00
2018-03-15T13:22:53.312Z,4484.00
2018-03-15T13:23:53.050Z,4600.00
2018-03-15T13:25:46.116Z,4776.00
2018-03-15T13:26:45.887Z,4860.00
2018-03-15T13:28:39.268Z,5160.00
2018-03-15T13:29:39.238Z,5348.00
2018-03-15T13:31:32.759Z,5680.00
2018-03-15T13:32:32.613Z,5772.00
2018-03-15T13:34:25.563Z,5820.00
2018-03-15T13:35:25.496Z,5884.00
2018-03-15T13:37:19.000Z,6176.00
2018-03-15T13:38:18.865Z,6336.00
2018-03-15T13:40:12.226Z,6348.00
2018-03-15T13:41:12.779Z,6180.00
2018-03-15T13:43:05.212Z,5940.00
2018-03-15T13:44:05.080Z,5908.00
2018-03-15T13:45:58.273Z,5476.00
2018-03-15T13:46:58.225Z,5136.00
2018-03-15T13:48:52.180Z,4656.00
2018-03-15T13:49:51.411Z,4576.00
2018-03-15T13:51:45.387Z,4724.00
2018-03-15T13:52:44.792Z,4692.00
2018-03-15T13:54:37.692Z,4164.00
2018-03-15T13:55:37.652Z,4040.00
2018-03-15T13:57:30.568Z,4052.00
2018-03-15T13:58:30.557Z,3984.00
2018-03-15T14:00:23.931Z,3684.00
2018-03-15T14:01:23.899Z,3572.00
2018-03-15T14:03:17.494Z,3800.00
2018-03-15T14:04:17.268Z,3880.00
2018-03-15T14:06:10.651Z,3972.00
2018-03-15T14:07:10.611Z,3876.00
2018-03-15T14:09:03.518Z,3712.00
2018-03-15T14:10:03.504Z,3676.00
2018-03-15T14:11:56.408Z,3556.00
2018-03-15T14:12:56.381Z,3496.00
2018-03-15T14:14:49.372Z,3324.00
2018-03-15T14:15:49.264Z,3168.00
2018-03-15T14:17:42.268Z,2780.00
2018-03-15T14:18:42.121Z,2604.00
2018-03-15T14:20:35.012Z,2408.00
2018-03-15T14:21:34.978Z,2336.00
2018-03-15T14:23:27.873Z,2392.00
2018-03-15T14:24:27.856Z,2424.00
2018-03-15T14:26:21.370Z,2584.00
2018-03-15T14:27:21.231Z,2636.00
2018-03-15T14:29:15.298Z,2732.00
2018-03-15T14:30:15.692Z,2828.00
2018-03-15T14:32:09.641Z,2980.00
2018-03-15T14:33:10.088Z,3008.00
2018-03-15T14:35:02.592Z,3084.00
2018-03-15T14:36:02.667Z,3140.00
2018-03-15T14:37:55.793Z,3276.00
2018-03-15T14:38:56.340Z,3376.00
2018-03-15T14:40:49.186Z,3588.00
2018-03-15T14:41:49.700Z,3656.00
2018-03-15T14:43:42.599Z,3644.00
2018-03-15T14:44:42.769Z,3584.00
2018-03-15T14:46:36.744Z,3404.00
2018-03-15T14:47:35.972Z,3320.00
2018-03-15T14:49:29.537Z,3136.00
2018-03-15T14:50:29.228Z,3024.00
2018-03-15T14:52:23.698Z,2784.00
2018-03-15T14:53:22.602Z,2668.00
2018-03-15T14:55:16.300Z,2500.00
2018-03-15T14:56:15.950Z,2488.00
2018-03-15T14:58:09.135Z,2476.00
2018-03-15T14:59:09.388Z,2452.00
2018-03-15T15:01:03.309Z,2368.00
2018-03-15T15:02:03.746Z,2292.00
2018-03-15T15:03:56.819Z,2120.00
2018-03-15T15:04:56.878Z,2032.00
2018-03-15T15:07:04.039Z,1868.00
2018-03-15T15:07:49.672Z,1804.00
2018-03-15T15:09:44.198Z,1732.00
2018-03-15T15:10:43.365Z,1680.00
2018-03-15T15:12:35.946Z,1532.00
2018-03-15T15:13:35.682Z,1452.00
2018-03-15T15:15:29.237Z,1312.00
2018-03-15T15:16:29.026Z,1268.00
2018-03-15T15:18:21.926Z,1232.00
2018-03-15T15:19:21.900Z,1224.00
2018-03-15T15:21:16.599Z,1220.00
2018-03-15T15:22:14.765Z,1224.00
2018-03-15T15:24:08.169Z,1216.00
2018-03-15T15:25:08.697Z,1196.00
2018-03-15T15:27:02.749Z,1136.00
2018-03-15T15:28:01.563Z,1092.00
2018-03-15T15:31:26.566Z,988.00
2018-03-15T15:32:26.025Z,984.00
2018-03-15T15:34:19.620Z,980.00
2018-03-15T15:35:19.964Z,968.00
2018-03-15T15:37:13.546Z,932.00
2018-03-15T15:38:13.356Z,916.00
2018-03-15T15:40:06.331Z,936.00
2018-03-15T15:41:06.130Z,960.00
2018-03-15T15:42:59.689Z,1016.00
2018-03-15T15:43:59.500Z,1012.00
2018-03-15T15:45:53.128Z,952.00
2018-03-15T15:46:53.087Z,920.00
2018-03-15T15:48:46.337Z,896.00
2018-03-15T15:49:45.732Z,884.00
2018-03-15T15:51:38.898Z,864.00
2018-03-15T15:52:38.598Z,872.00
2018-03-15T15:54:32.186Z,880.00
2018-03-15T15:55:31.477Z,900.00
2018-03-15T15:57:24.354Z,932.00
2018-03-15T15:58:24.354Z,952.00
2018-03-15T16:00:17.224Z,984.00
2018-03-15T16:01:17.289Z,984.00
2018-03-15T16:03:10.869Z,976.00
2018-03-15T16:04:10.588Z,952.00
2018-03-15T16:06:04.078Z,872.00
2018-03-15T16:07:03.976Z,832.00
2018-03-15T16:08:57.092Z,788.00
2018-03-15T16:09:56.863Z,776.00
2018-03-15T16:11:50.491Z,756.00
2018-03-15T16:12:50.187Z,744.00
2018-03-15T16:14:43.261Z,704.00
2018-03-15T16:15:43.136Z,684.00
2018-03-15T16:17:37.038Z,664.00
2018-03-15T16:18:36.464Z,652.00
2018-03-15T16:20:29.848Z,620.00
2018-03-15T16:21:29.801Z,592.00
2018-03-15T16:23:22.712Z,556.00
2018-03-15T16:24:22.738Z,540.00
2018-03-15T16:26:16.199Z,520.00
2018-03-15T16:27:16.089Z,512.00
2018-03-15T16:29:08.940Z,472.00
2018-03-15T16:30:08.926Z,444.00
2018-03-15T16:32:02.404Z,412.00
2018-03-15T16:33:02.304Z,392.00
2018-03-15T16:34:55.152Z,356.00
2018-03-15T16:35:55.145Z,332.00
2018-03-15T16:37:48.020Z,308.00
2018-03-15T16:38:48.027Z,296.00
2018-03-15T16:40:41.384Z,284.00
2018-03-15T16:41:41.922Z,276.00
2018-03-15T16:43:34.940Z,268.00
2018-03-15T16:44:35.762Z,264.00
2018-03-15T16:46:28.102Z,256.00
2018-03-15T16:47:28.077Z,248.00
2018-03-15T16:49:20.989Z,228.00
2018-03-15T16:50:20.946Z,216.00
2018-03-15T16:52:14.674Z,192.00
2018-03-15T16:53:14.348Z,184.00
2018-03-15T16:55:07.392Z,180.00
2018-03-15T16:56:09.820Z,176.00
2018-03-15T16:58:01.499Z,160.00
2018-03-15T16:59:00.571Z,148.00
2018-03-15T17:00:53.506Z,128.00
2018-03-15T17:03:08.432Z,112.00
2018-03-15T17:04:06.927Z,104.00
2018-03-15T17:05:59.820Z,92.00
2018-03-15T17:07:00.048Z,88.00
2018-03-15T17:08:53.214Z,80.00
2018-03-15T17:09:53.155Z,80.00
2018-03-15T17:11:46.873Z,72.00
2018-03-15T17:12:46.510Z,68.00
2018-03-15T17:14:39.591Z,60.00
2018-03-15T17:15:39.404Z,52.00
2018-03-15T17:17:34.370Z,44.00
2018-03-15T17:18:33.345Z,44.00
2018-03-15T17:20:33.442Z,36.00
2018-03-15T17:21:27.290Z,36.00
2018-03-15T17:23:20.395Z,32.00
2018-03-15T17:24:20.151Z,28.00
2018-03-15T17:26:13.455Z,24.00
2018-03-15T17:27:13.435Z,20.00
2018-03-15T17:29:06.329Z,20.00
2018-03-15T17:30:06.325Z,16.00
2018-03-15T17:32:01.757Z,16.00
2018-03-15T17:32:59.714Z,12.00
2018-03-15T17:34:52.583Z,12.00
2018-03-15T17:35:53.350Z,8.00
2018-03-15T17:37:46.057Z,12.00
2018-03-15T17:38:45.943Z,8.00
2018-03-15T17:40:39.802Z,4.00
2018-03-15T17:41:39.315Z,8.00
2018-03-15T17:43:33.050Z,4.00
2018-03-15T17:44:32.706Z,4.00
2018-03-15T17:46:26.483Z,0.00
2018-03-15T17:47:26.050Z,4.00
2018-03-15T17:49:19.531Z,0.00
2018-03-15T17:50:19.883Z,0.00
2018-03-15T17:52:13.047Z,0.00
2018-03-15T17:53:13.834Z,0.00
2018-03-15T17:55:06.206Z,0.00
2018-03-15T17:56:06.134Z,0.00
2018-03-15T17:57:59.030Z,0.00
2018-03-15T17:58:59.043Z,0.00
2018-03-15T18:00:52.640Z,0.00
2018-03-15T18:01:52.373Z,0.00
2018-03-15T18:03:45.821Z,0.00
2018-03-15T18:04:45.723Z,0.00
2018-03-15T18:06:39.101Z,0.00
2018-03-15T18:07:38.772Z,0.00
2018-03-15T18:09:33.097Z,0.00
2018-03-15T18:10:33.083Z,0.00
2018-03-15T18:12:26.084Z,0.00
2018-03-15T18:13:26.277Z,0.00
2018-03-15T18:15:19.358Z,0.00
2018-03-15T18:16:19.300Z,0.00
2018-03-15T18:18:12.456Z,0.00